Difference between revisions of "ElWiki"

From s23
Jump to navigation Jump to search
imported>mutante
m
(No difference)

Revision as of 00:19, 17 December 2006

A wiki hive.

"ElWiki is a collection of Wiki-based knowledgebases on a variery of subjects. Users may create a Wiki on any subject - and we'll take care of configuring, hosting and maintaining the site free-of-charge!"


List of elwiki.com Wikis

External Source, dynamically sortable to any criteria, self-updating every six hours by cronjob

External Source, generated wikisyntax, which manually is being pasted below

No. Name Good Total Edits Views Admins Users Images Stub Ratio Updated
1 altrail 2786 4776 12311 103288 5 25 239 0.58 2006-12-16 23:40:23
2 htown 804 2721 6135 91096 15 43 358 0.30 2006-12-16 23:39:42
3 313 802 2702 13117 426972 6 225 166 0.30 2006-12-16 23:41:20
4 earthenring 695 3350 8100 157002 12 250 716 0.21 2006-12-16 23:39:01
5 thoriumbrotherhood 639 2936 8880 176852 3 289 726 0.22 2006-12-16 23:37:48
6 potd 614 2833 14053 438905 5 492 243 0.22 2006-12-16 23:37:49
7 CARAW 556 2048 5165 116888 3 24 0 0.27 2006-12-16 23:40:39
8 speedrun 527 2363 4348 49221 4 50 65 0.22 2006-12-16 23:37:23
9 guildopedia 505 2426 11323 365218 5 395 352 0.21 2006-12-16 23:37:20
10 pardus 382 2403 3928 107439 4 43 485 0.16 2006-12-16 23:38:30
11 ookeria 380 1785 1694 15415 1 8 0 0.21 2006-12-16 23:39:30
12 tensores 325 1796 1961 24588 1 16 72 0.18 2006-12-16 23:41:23
13 YAC 325 1694 1585 12103 1 2 31 0.19 2006-12-16 23:41:46
14 mata 311 2080 2784 20908 2 10 231 0.15 2006-12-16 23:41:33
15 Ether 263 1668 2123 38483 1 24 15 0.16 2006-12-16 23:36:59
16 samsgreatpage 217 1656 2115 13966 3 15 84 0.13 2006-12-16 23:41:34
17 Roleplay 179 1633 1891 8357 2 7 96 0.11 2006-12-16 23:41:40
18 gamesradar 176 1606 1699 37885 1 75 14 0.11 2006-12-16 23:38:19
19 MythDrannor 174 1601 1667 18780 1 40 82 0.11 2006-12-16 23:40:13
20 cybercheetah 172 1649 820 4595 0 5 55 0.10 2006-12-16 23:38:33
21 twinpeaks 158 1465 397 6751 1 4 9 0.11 2006-12-16 23:39:03
22 schools 153 1619 1064 437829 3 18 4 0.09 2006-12-16 23:41:04
23 elothtes 151 1430 164 1509 1 2 0 0.11 2006-12-16 23:38:28
24 hetregister 146 1522 865 4098 1 4 0 0.10 2006-12-16 23:39:23
25 ldales 117 1410 247 3916 1 6 2 0.08 2006-12-16 23:36:48
26 draman-ka 115 1510 1819 8254 2 5 62 0.08 2006-12-16 23:37:29
27 gloveshack 115 1503 1057 10005 1 9 17 0.08 2006-12-16 23:38:36
28 drak24 108 1578 1366 6006 1 2 83 0.07 2006-12-16 23:41:30
29 bsbwiki 107 1515 1225 19501 4 16 22 0.07 2006-12-16 23:39:25
30 musicblogwiki 106 1562 1882 109011 1 68 17 0.07 2006-12-16 23:40:04
31 cthulhu 106 1432 844 3853 1 2 1 0.07 2006-12-16 23:39:27
32 loomis 103 1454 707 29979 1 15 19 0.07 2006-12-16 23:36:46
33 fode 101 1438 448 8222 1 8 3 0.07 2006-12-16 23:41:12
34 shinra 96 1457 510 5308 1 15 8 0.07 2006-12-16 23:40:07
35 law 93 1409 222 1732 1 1 7 0.07 2006-12-16 23:38:55
36 galaxyofchaos 89 1436 310 29351 2 9 0 0.06 2006-12-16 23:37:00
37 officialhistoryofookeria 87 1405 187 1681 1 3 0 0.06 2006-12-16 23:38:05
38 aahcwiki 86 1487 734 8489 4 27 34 0.06 2006-12-16 23:38:48
39 drelwiki 82 1432 457 3548 1 6 7 0.06 2006-12-16 23:39:48
40 Earthraiders 80 1376 166 1263 1 1 0 0.06 2006-12-16 23:42:02
41 hpfanfic 80 1371 131 2702 1 3 0 0.06 2006-12-16 23:38:50
42 TheAAHC 77 1454 432 6200 1 14 35 0.05 2006-12-16 23:36:57
43 korngeek 73 1359 142 1415 2 3 0 0.05 2006-12-16 23:39:21
44 area9 70 1446 463 3045 1 3 85 0.05 2006-12-16 23:37:15
45 thewiki 68 1402 869 5908 1 2 12 0.05 2006-12-16 23:37:35
46 rulezmania 67 1474 928 8862 2 7 2 0.05 2006-12-16 23:40:05
47 sunik 67 1366 180 3587 1 5 0 0.05 2006-12-16 23:37:30
48 classdwiki 66 1763 2998 21130 3 29 236 0.04 2006-12-16 23:36:50
49 mywiki 64 1453 431 2567 1 4 72 0.04 2006-12-16 23:40:45
50 MessageBoards 57 1400 347 4444 1 13 3 0.04 2006-12-16 23:41:37
51 psyklopedin 56 1440 695 9827 0 23 19 0.04 2006-12-16 23:37:53
52 makeagokart 56 1433 848 14677 2 4 31 0.04 2006-12-16 23:40:24
53 ltc 55 1356 230 3134 1 3 9 0.04 2006-12-16 23:37:54
54 geo 54 1357 363 4316 2 5 6 0.04 2006-12-16 23:39:55
55 readordiewiki 52 1477 680 25452 2 16 102 0.04 2006-12-16 23:39:08
56 d30 52 1437 668 7908 1 5 37 0.04 2006-12-16 23:41:43
57 Alternates 52 1357 292 2194 1 1 5 0.04 2006-12-16 23:38:41
58 scarlettspiderg 52 1347 161 2028 1 2 2 0.04 2006-12-16 23:38:40
59 powerrangers 50 1341 203 1254 1 4 0 0.04 2006-12-16 23:39:07
60 sports 47 1361 384 7793 1 8 18 0.03 2006-12-16 23:37:57
61 uwsa 46 1390 805 10860 1 8 14 0.03 2006-12-16 23:38:32
62 lugiaboydx 46 1364 391 4310 1 35 28 0.03 2006-12-16 23:41:13
63 wikidmb 45 1370 223 1178 1 3 0 0.03 2006-12-16 23:37:06
64 starsquid77 45 1340 311 3715 1 1 0 0.03 2006-12-16 23:38:18
65 mjversion 41 1371 370 3039 1 3 17 0.03 2006-12-16 23:37:09
66 Zachio 36 1373 199 1533 2 6 4 0.03 2006-12-16 23:38:02
67 upthehill 36 1350 311 4790 1 5 17 0.03 2006-12-16 23:41:22
68 humor 36 1322 113 1660 1 2 0 0.03 2006-12-16 23:40:26
69 NV2D 35 1417 1312 18922 26 31 15 0.02 2006-12-16 23:37:13
70 forgottenhour 33 1349 266 2055 1 3 0 0.02 2006-12-16 23:37:45
71 pokemonmaps 33 1323 813 2870 1 1 1 0.02 2006-12-16 23:37:42
72 jazzngar 32 1319 128 1261 1 1 1 0.02 2006-12-16 23:41:50
73 avinalde 31 1322 148 1030 1 1 0 0.02 2006-12-16 23:41:47
74 newfiction 30 1338 542 3106 1 2 5 0.02 2006-12-16 23:40:57
75 gmasterz 30 1333 195 2003 1 6 10 0.02 2006-12-16 23:41:02
76 MKsJunction 30 1329 185 2073 1 5 1 0.02 2006-12-16 23:39:26
77 smalltown 30 1315 57 822 2 2 0 0.02 2006-12-16 23:41:06
78 dewire 27 1333 109 703 1 1 2 0.02 2006-12-16 23:36:55
79 lifeisfree 26 1338 584 2545 1 4 1 0.02 2006-12-16 23:41:32
80 moviepedia 25 1382 246 2454 1 2 28 0.02 2006-12-16 23:41:59
81 nintendobeneluxpedia 25 1322 146 3415 1 12 2 0.02 2006-12-16 23:37:26
82 rotowiki 25 1313 155 1042 1 2 5 0.02 2006-12-16 23:39:37
83 galaxyural 24 1327 205 1269 1 1 5 0.02 2006-12-16 23:37:22
84 salar 24 1315 367 1448 1 1 3 0.02 2006-12-16 23:36:53
85 extreem-gfx 23 1397 334 5963 4 12 7 0.02 2006-12-16 23:38:58
86 strangefellows 23 1353 257 3763 1 3 20 0.02 2006-12-16 23:41:29
87 amirul 23 1321 121 1941 1 2 5 0.02 2006-12-16 23:39:49
88 wikilost 23 1305 39 2481 1 2 0 0.02 2006-12-16 23:40:02
89 vmkinfo 22 1425 887 8249 6 10 5 0.02 2006-12-16 23:39:38
90 walterplayton 22 1349 1541 17018 1 13 25 0.02 2006-12-16 23:38:00
91 zeeblot 22 1316 93 1085 1 2 1 0.02 2006-12-16 23:41:54
92 SpaceConflict 22 1303 109 1627 1 3 0 0.02 2006-12-16 23:37:31
93 vios 21 1372 218 1744 1 1 64 0.02 2006-12-16 23:41:03
94 amgwiki 21 1343 366 3831 4 7 13 0.02 2006-12-16 23:37:32
95 strenzsap 21 1331 195 1460 2 8 23 0.02 2006-12-16 23:41:38
96 Hablife 21 1326 472 2187 1 3 0 0.02 2006-12-16 23:40:55
97 plutohome 21 1325 233 4452 1 9 8 0.02 2006-12-16 23:37:25
98 wikimusement 21 1318 59 724 1 2 2 0.02 2006-12-16 23:37:04
99 wildeboerwiki 20 1402 370 2248 1 2 40 0.01 2006-12-16 23:37:34
100 holmesey 20 1330 241 2757 1 3 6 0.02 2006-12-16 23:40:37
101 guide 20 1321 117 2118 1 2 1 0.02 2006-12-16 23:38:25
102 knoxwiki 19 1349 272 3776 2 8 26 0.01 2006-12-16 23:38:09
103 fats 19 1346 224 2765 3 5 11 0.01 2006-12-16 23:39:51
104 fission 19 1344 251 1061 2 2 5 0.01 2006-12-16 23:37:59
105 soundtrek 19 1323 180 2062 1 3 24 0.01 2006-12-16 23:40:06
106 ibrain 19 1307 56 522 1 2 0 0.01 2006-12-16 23:37:02
107 vt-talk 18 1353 411 3062 3 10 10 0.01 2006-12-16 23:36:49
108 hr 18 1311 59 899 1 3 2 0.01 2006-12-16 23:38:47
109 verdigriscampaign 17 1321 207 1178 1 1 0 0.01 2006-12-16 23:38:15
110 bluejdnb 16 1381 1063 3867 1 7 37 0.01 2006-12-16 23:37:56
111 jmatrix 16 1341 347 1605 1 1 16 0.01 2006-12-16 23:40:22
112 yourgamingwiki 16 1331 183 2255 4 5 5 0.01 2006-12-16 23:39:52
113 isterenge 16 1327 186 3593 1 3 24 0.01 2006-12-16 23:41:57
114 leftbehind 15 1299 74 546 1 1 4 0.01 2006-12-16 23:38:16
115 recombinance 15 1297 34 1008 1 1 0 0.01 2006-12-16 23:36:54
116 autofill 14 1302 41 472 1 1 0 0.01 2006-12-16 23:37:17
117 negativehorizon 13 1315 70 1662 1 1 0 0.01 2006-12-16 23:40:20
118 balthwiki 13 1315 95 816 2 2 0 0.01 2006-12-16 23:41:52
119 tinytimrob 13 1315 160 1264 1 3 5 0.01 2006-12-16 23:38:11
120 fhorj 13 1298 47 860 1 2 0 0.01 2006-12-16 23:38:39
121 arhitecti 13 1295 151 1070 1 9 1 0.01 2006-12-16 23:38:44
122 errpg 12 1323 219 3153 2 4 1 0.01 2006-12-16 23:37:36
123 1018chronicles 12 1307 94 961 1 5 2 0.01 2006-12-16 23:41:08
124 twomonn 12 1297 84 706 1 2 5 0.01 2006-12-16 23:39:20
125 a4a 12 1295 133 876 1 6 1 0.01 2006-12-16 23:39:36
126 corinthians 12 1291 17 452 1 1 1 0.01 2006-12-16 23:38:38
127 rawshooter 11 1359 1030 51562 1 62 39 0.01 2006-12-16 23:39:28
128 mbrunngraber 11 1324 225 1283 1 2 32 0.01 2006-12-16 23:41:51
129 itmanual 11 1311 181 1386 1 2 2 0.01 2006-12-16 23:37:24
130 xenia 11 1296 67 654 1 3 2 0.01 2006-12-16 23:37:47
131 OneChurch 11 1296 47 372 1 1 0 0.01 2006-12-16 23:41:36
132 runescape 10 1331 225 1596 1 4 13 0.01 2006-12-16 23:37:28
133 trackersnw 10 1322 215 4619 1 3 0 0.01 2006-12-16 23:41:15
134 jsf 10 1308 140 2051 2 2 12 0.01 2006-12-16 23:41:00
135 debianhelp 10 1305 75 960 1 1 5 0.01 2006-12-16 23:39:09
136 IIA 10 1299 240 2945 1 7 0 0.01 2006-12-16 23:38:12
137 hicksville 10 1299 72 621 1 2 3 0.01 2006-12-16 23:39:54
138 k5a 10 1298 41 616 1 2 3 0.01 2006-12-16 23:38:57
139 anserona 10 1295 130 731 1 2 0 0.01 2006-12-16 23:41:24
140 thepaper 10 1293 260 1242 1 2 0 0.01 2006-12-16 23:41:01
141 classdchill 9 1335 155 1545 2 7 16 0.01 2006-12-16 23:38:22
142 joesrandomwiki 9 1318 150 1928 1 3 15 0.01 2006-12-16 23:38:49
143 wikicheese 9 1310 82 1075 1 3 4 0.01 2006-12-16 23:37:38
144 xavier 9 1306 79 939 1 6 4 0.01 2006-12-16 23:41:07
145 warbears 9 1305 59 761 1 3 11 0.01 2006-12-16 23:38:53
146 richiepedia 9 1299 22 556 1 1 1 0.01 2006-12-16 23:39:06
147 SAMwiki 9 1299 51 2108 1 1 5 0.01 2006-12-16 23:41:18
148 esqunited 9 1296 78 1040 1 2 0 0.01 2006-12-16 23:38:37
149 shaneo632 9 1293 45 533 1 1 0 0.01 2006-12-16 23:41:56
150 winestudent 8 1323 470 2720 1 3 13 0.01 2006-12-16 23:36:58
151 243 8 1303 139 1288 1 2 7 0.01 2006-12-16 23:37:19
152 saturnos 8 1300 54 598 1 1 6 0.01 2006-12-16 23:38:43
153 vacuumsystems 8 1292 91 439 1 1 3 0.01 2006-12-16 23:38:24
154 mzbloodgods 7 1345 242 1220 1 6 17 0.01 2006-12-16 23:37:44
155 sovereign 7 1308 70 967 1 2 4 0.01 2006-12-16 23:38:29
156 tyork 7 1303 158 1250 1 2 0 0.01 2006-12-16 23:39:56
157 redwolvx 7 1298 61 948 1 2 2 0.01 2006-12-16 23:40:14
158 dragonfly 7 1295 27 528 1 1 0 0.01 2006-12-16 23:38:17
159 Astrobattle 6 1386 380 3529 1 8 72 0.00 2006-12-16 23:39:41
160 LUEsers 6 1330 139 3958 1 33 3 0.00 2006-12-16 23:41:09
161 Tankmania 6 1314 247 3401 1 11 4 0.00 2006-12-16 23:41:21
162 methacton 6 1314 78 779 1 5 3 0.00 2006-12-16 23:39:53
163 drtaylor 6 1311 137 1023 1 2 11 0.00 2006-12-16 23:38:06
164 fanfiki 6 1305 75 672 1 4 0 0.00 2006-12-16 23:41:19
165 athena 6 1301 162 1329 1 8 3 0.00 2006-12-16 23:36:51
166 pierye 6 1301 44 650 1 2 1 0.00 2006-12-16 23:37:51
167 neforsaken 6 1299 76 514 1 1 0 0.00 2006-12-16 23:40:21
168 exsamen 6 1297 99 1544 1 8 0 0.00 2006-12-16 23:38:59
169 bemani 6 1294 62 668 1 2 9 0.00 2006-12-16 23:41:16
170 killerstradesite 6 1291 50 468 1 2 0 0.00 2006-12-16 23:41:55
171 dariacon 5 1314 152 1625 1 3 1 0.00 2006-12-16 23:40:53
172 gfaqs 5 1311 80 1629 1 4 1 0.00 2006-12-16 23:41:11
173 songstowearpantsto 5 1306 91 1123 3 7 1 0.00 2006-12-16 23:42:00
174 supermariospritecomics 5 1303 104 623 1 2 1 0.00 2006-12-16 23:39:00
175 almightyryu 5 1300 209 2796 1 1 6 0.00 2006-12-16 23:40:38
176 canrural 5 1298 58 1037 1 1 0 0.00 2006-12-16 23:38:21
177 2wheelwiki 5 1297 72 952 1 7 3 0.00 2006-12-16 23:41:26
178 zeldapedia 5 1296 121 843 1 11 3 0.00 2006-12-16 23:38:13
179 mvillemo 5 1294 236 782 1 2 0 0.00 2006-12-16 23:41:31
180 theoryrocks 5 1291 39 367 1 1 0 0.00 2006-12-16 23:39:40
181 ParagonHeroes 5 1289 13 340 1 2 6 0.00 2006-12-16 23:37:18
182 truthandjustice 5 1287 20 227 1 1 0 0.00 2006-12-16 23:40:54
183 bedazzledmorons 5 1286 22 373 1 2 0 0.00 2006-12-16 23:37:14
184 ventures 5 1284 13 296 1 2 0 0.00 2006-12-16 23:38:45
185 onepiece 4 1284 62 587 1 1 0 0.00 2006-12-16 23:37:12
186 ueaunderground 1 1318 791 14492 2 17 21 0.00 2006-12-16 23:37:43
187 Everything 1 1296 40 487 1 4 11 0.00 2006-12-16 23:41:48
188 3296anarchy 0 1301 89 702 1 2 0 0.00 2006-12-16 23:38:34
189 linksextremismus 0 1297 44 442 2 2 2 0.00 2006-12-16 23:37:50
190 wiki 0 1290 161 2303 1 2 3 0.00 2006-12-16 23:40:47
191 rldswiki 0 1284 297 1794 1 3 0 0.00 2006-12-16 23:38:52
192 inoonaj 0 1279 104 860 1 1 0 0.00 2006-12-16 23:38:26
193 Old-gaming 0 [1] [2] [3] [4] 0000-00-00 00:00:00

Grand Total

Articles Total Edits Admins Users Images
16 225 277 747 159 654 319 3 029 5 942